Time;durP1;ratioP1;P1;durP2;ratioP2;P2;SDS_P1;SDS_P2;PMS_P1;PMS_P2;Temp;Humidity;BMP_temperature;BMP_pressure;BME280_temperature;BME280_humidity;BME280_pressure;Samples;Min_cycle;Max_cycle;Signal;HPM_P1;HPM_P2
2021/05/02 00:01:07;;;;;;;7.60;5.78;;;;;;;;;;5133121;28;20039;-67
2021/05/02 00:03:33;;;;;;;7.35;5.82;;;;;;;;;;5132149;28;20483;-69
2021/05/02 00:06:00;;;;;;;7.85;5.60;;;;;;;;;;5133661;28;20079;-66
2021/05/02 00:08:27;;;;;;;7.90;5.72;;;;;;;;;;5132965;28;20482;-66
2021/05/02 00:10:54;;;;;;;7.78;6.00;;;;;;;;;;5133559;28;20096;-66
2021/05/02 00:13:20;;;;;;;8.93;6.40;;;;;;;;;;5132512;28;20365;-67
2021/05/02 00:15:46;;;;;;;9.20;6.60;;;;;;;;;;5135103;27;20051;-67
2021/05/02 00:18:13;;;;;;;9.20;6.45;;;;;;;;;;5133046;28;20062;-66
2021/05/02 00:20:39;;;;;;;8.95;6.10;;;;;;;;;;5133366;28;20051;-65
2021/05/02 00:23:05;;;;;;;7.07;5.93;;;;;;;;;;5131828;27;20054;-65
2021/05/02 00:25:33;;;;;;;9.45;6.30;;;;;;;;;;5120453;28;20051;-66
2021/05/02 00:28:00;;;;;;;8.05;6.22;;;;;;;;;;5132979;28;20054;-66
2021/05/02 00:30:27;;;;;;;9.00;6.75;;;;;;;;;;5132918;28;20096;-66
2021/05/02 00:32:54;;;;;;;7.85;5.75;;;;;;;;;;5132958;28;20058;-65
2021/05/02 00:35:22;;;;;;;7.60;5.15;;;;;;;;;;5132950;28;20480;-65
2021/05/02 00:37:49;;;;;;;11.18;6.03;;;;;;;;;;5128522;28;20545;-65
2021/05/02 00:40:16;;;;;;;8.60;5.70;;;;;;;;;;5120423;28;20054;-65
2021/05/02 00:42:48;;;;;;;8.32;5.65;;;;;;;;;;5133077;28;20089;-65
2021/05/02 00:45:21;;;;;;;8.43;5.57;;;;;;;;;;5142458;27;20398;-66
2021/05/02 00:47:49;;;;;;;8.40;5.95;;;;;;;;;;5153974;27;20050;-65
2021/05/02 00:50:17;;;;;;;7.60;5.30;;;;;;;;;;5153401;27;20059;-65
2021/05/02 00:52:57;;;;;;;7.57;5.43;;;;;;;;;;5156255;27;20055;-65
2021/05/02 00:55:28;;;;;;;8.18;5.40;;;;;;;;;;5136445;27;20051;-66
2021/05/02 00:57:57;;;;;;;8.45;6.18;;;;;;;;;;5136367;27;20048;-66
2021/05/02 01:00:26;;;;;;;8.80;6.32;;;;;;;;;;5136171;27;20100;-65
2021/05/02 01:02:56;;;;;;;7.10;4.97;;;;;;;;;;5136118;27;20777;-66
2021/05/02 01:05:23;;;;;;;10.13;6.13;;;;;;;;;;5136072;27;20047;-65
2021/05/02 01:07:51;;;;;;;7.65;5.50;;;;;;;;;;5136245;27;20043;-65
2021/05/02 01:10:18;;;;;;;7.25;5.25;;;;;;;;;;5135521;27;20043;-65
2021/05/02 01:12:46;;;;;;;7.18;5.35;;;;;;;;;;5136017;27;20051;-65
2021/05/02 01:15:14;;;;;;;5.82;4.47;;;;;;;;;;5135420;27;20050;-66
2021/05/02 01:17:43;;;;;;;7.85;5.13;;;;;;;;;;5136338;27;20039;-65
2021/05/02 01:20:12;;;;;;;7.95;5.22;;;;;;;;;;5136281;27;20495;-65
2021/05/02 01:22:41;;;;;;;8.68;5.25;;;;;;;;;;5134363;27;20395;-65
2021/05/02 01:25:09;;;;;;;7.82;5.43;;;;;;;;;;5132628;27;20043;-66
2021/05/02 01:27:36;;;;;;;6.68;4.85;;;;;;;;;;5125579;27;20047;-65
2021/05/02 01:30:06;;;;;;;7.72;5.43;;;;;;;;;;5126011;27;20047;-65
2021/05/02 01:32:32;;;;;;;9.00;5.93;;;;;;;;;;5135960;27;20055;-65
2021/05/02 01:34:58;;;;;;;8.70;5.45;;;;;;;;;;5134379;27;20051;-65
2021/05/02 01:37:24;;;;;;;9.20;5.85;;;;;;;;;;5120616;27;20051;-65
2021/05/02 01:39:51;;;;;;;8.52;6.25;;;;;;;;;;5115337;28;20134;-65
2021/05/02 01:42:18;;;;;;;7.10;5.43;;;;;;;;;;5123250;27;20479;-66
2021/05/02 01:44:44;;;;;;;10.15;5.93;;;;;;;;;;5135334;27;20115;-65
2021/05/02 01:47:11;;;;;;;8.05;5.05;;;;;;;;;;5135278;27;20043;-65
2021/05/02 01:49:43;;;;;;;9.43;5.82;;;;;;;;;;5135495;27;20092;-65
2021/05/02 01:52:10;;;;;;;8.63;5.70;;;;;;;;;;5135655;27;20464;-65
2021/05/02 01:54:37;;;;;;;9.80;6.30;;;;;;;;;;5134609;27;20043;-65
2021/05/02 01:57:04;;;;;;;8.23;6.00;;;;;;;;;;5135232;27;20046;-65
2021/05/02 01:59:31;;;;;;;9.43;6.07;;;;;;;;;;5135140;27;20058;-65
2021/05/02 02:01:57;;;;;;;10.30;6.35;;;;;;;;;;5134171;27;20047;-65
2021/05/02 02:04:26;;;;;;;8.07;5.45;;;;;;;;;;5134552;27;20051;-65
2021/05/02 02:06:53;;;;;;;8.77;6.13;;;;;;;;;;5134934;27;20045;-65
2021/05/02 02:09:19;;;;;;;10.57;7.35;;;;;;;;;;5134260;27;20055;-66
2021/05/02 02:11:45;;;;;;;8.88;6.57;;;;;;;;;;5136613;27;20054;-65
2021/05/02 02:14:11;;;;;;;10.52;6.88;;;;;;;;;;5141782;27;20051;-65
2021/05/02 02:16:42;;;;;;;10.55;6.38;;;;;;;;;;5151831;27;20050;-65
2021/05/02 02:19:08;;;;;;;8.18;5.65;;;;;;;;;;5155541;27;20050;-65
2021/05/02 02:21:34;;;;;;;9.60;6.90;;;;;;;;;;5155758;27;20072;-65
2021/05/02 02:24:01;;;;;;;9.23;6.40;;;;;;;;;;5143480;27;20380;-65
2021/05/02 02:26:29;;;;;;;9.90;7.13;;;;;;;;;;5133106;27;20042;-65
2021/05/02 02:28:55;;;;;;;9.98;6.80;;;;;;;;;;5126099;27;20620;-65
2021/05/02 02:31:23;;;;;;;10.05;6.78;;;;;;;;;;5134131;27;20051;-65
2021/05/02 02:33:50;;;;;;;11.43;8.48;;;;;;;;;;5133913;27;20051;-65
2021/05/02 02:36:16;;;;;;;9.48;6.63;;;;;;;;;;5133843;27;20423;-65
2021/05/02 02:38:43;;;;;;;10.82;7.60;;;;;;;;;;5134263;27;20043;-65
2021/05/02 02:41:13;;;;;;;12.35;8.82;;;;;;;;;;5134193;27;20487;-65
2021/05/02 02:43:43;;;;;;;12.80;9.35;;;;;;;;;;5133494;27;20099;-65
2021/05/02 02:46:15;;;;;;;12.93;8.90;;;;;;;;;;5134103;27;20063;-65
2021/05/02 02:48:41;;;;;;;13.98;9.50;;;;;;;;;;5134418;27;20061;-65
2021/05/02 02:51:09;;;;;;;12.95;8.65;;;;;;;;;;5134304;27;20051;-65
2021/05/02 02:53:36;;;;;;;13.50;9.82;;;;;;;;;;5146621;27;20468;-65
2021/05/02 02:56:04;;;;;;;12.50;9.13;;;;;;;;;;5134559;27;20050;-65
2021/05/02 02:58:35;;;;;;;14.98;10.18;;;;;;;;;;5133890;27;20092;-65
2021/05/02 03:01:03;;;;;;;13.18;9.88;;;;;;;;;;5134429;27;20051;-65
2021/05/02 03:03:30;;;;;;;15.05;10.02;;;;;;;;;;5133365;27;20047;-65
2021/05/02 03:05:57;;;;;;;13.43;9.60;;;;;;;;;;5133071;27;20139;-66
2021/05/02 03:08:24;;;;;;;17.45;10.43;;;;;;;;;;5134300;27;20047;-65
2021/05/02 03:10:51;;;;;;;15.05;10.90;;;;;;;;;;5133971;27;20051;-65
2021/05/02 03:13:17;;;;;;;14.60;10.35;;;;;;;;;;5135019;27;20475;-65
2021/05/02 03:15:43;;;;;;;12.43;9.57;;;;;;;;;;5133498;27;20043;-65
2021/05/02 03:18:13;;;;;;;15.57;11.13;;;;;;;;;;5133730;27;20047;-65
2021/05/02 03:20:39;;;;;;;14.20;9.75;;;;;;;;;;5134061;27;20051;-65
2021/05/02 03:23:07;;;;;;;12.40;9.40;;;;;;;;;;5133203;27;20410;-65
2021/05/02 03:25:36;;;;;;;13.50;9.32;;;;;;;;;;5132970;27;20055;-65
2021/05/02 03:28:03;;;;;;;13.23;9.82;;;;;;;;;;5120215;27;20051;-65
2021/05/02 03:30:30;;;;;;;13.05;9.43;;;;;;;;;;5124615;27;20054;-65
2021/05/02 03:32:57;;;;;;;12.65;9.02;;;;;;;;;;5133158;27;20104;-65
2021/05/02 03:35:27;;;;;;;12.95;9.00;;;;;;;;;;5132565;27;20048;-66
2021/05/02 03:38:03;;;;;;;13.23;10.05;;;;;;;;;;5112987;28;20043;-65
2021/05/02 03:40:29;;;;;;;14.73;9.30;;;;;;;;;;5113429;28;20507;-65
2021/05/02 03:42:55;;;;;;;12.80;9.70;;;;;;;;;;5146038;27;20395;-66
2021/05/02 03:45:21;;;;;;;14.98;9.15;;;;;;;;;;5132955;28;20048;-65
2021/05/02 03:47:47;;;;;;;13.02;8.77;;;;;;;;;;5133519;28;20476;-65
2021/05/02 03:50:13;;;;;;;13.02;9.18;;;;;;;;;;5133626;28;20047;-66
2021/05/02 03:52:39;;;;;;;14.63;10.30;;;;;;;;;;5133400;28;20184;-65
2021/05/02 03:55:06;;;;;;;13.27;10.10;;;;;;;;;;5132607;28;20051;-65
2021/05/02 03:57:33;;;;;;;13.00;9.88;;;;;;;;;;5133357;28;20058;-65
2021/05/02 03:59:59;;;;;;;15.48;11.15;;;;;;;;;;5133301;27;20083;-66
2021/05/02 04:02:25;;;;;;;12.60;9.27;;;;;;;;;;5133477;28;20051;-65
2021/05/02 04:04:51;;;;;;;13.02;9.90;;;;;;;;;;5132417;28;20126;-65
2021/05/02 04:07:17;;;;;;;14.15;10.50;;;;;;;;;;5132418;28;20099;-65
2021/05/02 04:09:45;;;;;;;14.77;11.13;;;;;;;;;;5133470;28;20097;-65
2021/05/02 04:12:12;;;;;;;15.35;10.27;;;;;;;;;;5144201;27;20468;-65
2021/05/02 04:14:39;;;;;;;15.13;10.95;;;;;;;;;;5129220;27;20048;-65
2021/05/02 04:17:07;;;;;;;14.48;10.50;;;;;;;;;;5112569;28;20052;-65
2021/05/02 04:19:34;;;;;;;13.75;10.52;;;;;;;;;;5112351;28;20047;-65
2021/05/02 04:22:00;;;;;;;13.93;10.38;;;;;;;;;;5112305;28;20055;-65
2021/05/02 04:24:26;;;;;;;13.70;10.52;;;;;;;;;;5126915;27;20069;-65
2021/05/02 04:26:54;;;;;;;16.83;12.23;;;;;;;;;;5136821;27;20134;-65
2021/05/02 04:29:21;;;;;;;17.13;11.85;;;;;;;;;;5127777;27;20047;-65
2021/05/02 04:31:47;;;;;;;16.67;12.20;;;;;;;;;;5130363;27;20098;-65
2021/05/02 04:34:13;;;;;;;16.88;12.25;;;;;;;;;;5136373;27;20460;-65
2021/05/02 04:36:39;;;;;;;17.67;13.10;;;;;;;;;;5128629;27;20044;-65
2021/05/02 04:39:06;;;;;;;15.88;12.18;;;;;;;;;;5116394;27;20097;-65
2021/05/02 04:41:32;;;;;;;19.55;12.90;;;;;;;;;;5124429;27;20039;-65
2021/05/02 04:43:58;;;;;;;16.67;12.40;;;;;;;;;;5136303;27;20046;-65
2021/05/02 04:46:24;;;;;;;15.70;11.45;;;;;;;;;;5136600;27;20062;-65
2021/05/02 04:48:50;;;;;;;15.48;11.10;;;;;;;;;;5136640;27;20047;-65
2021/05/02 04:51:19;;;;;;;17.00;12.10;;;;;;;;;;5136436;27;20088;-65
2021/05/02 04:53:45;;;;;;;15.45;11.60;;;;;;;;;;5135868;27;20047;-65
2021/05/02 04:56:11;;;;;;;15.27;11.48;;;;;;;;;;5136835;27;20054;-65
2021/05/02 04:58:37;;;;;;;17.17;11.25;;;;;;;;;;5137011;27;20403;-65
2021/05/02 05:01:03;;;;;;;15.35;11.60;;;;;;;;;;5136405;27;20047;-65
2021/05/02 05:03:31;;;;;;;15.85;10.45;;;;;;;;;;5134426;27;20055;-65
2021/05/02 05:05:57;;;;;;;16.13;10.38;;;;;;;;;;5128712;27;20074;-65
2021/05/02 05:08:24;;;;;;;17.60;11.00;;;;;;;;;;5122693;27;20495;-65
2021/05/02 05:10:50;;;;;;;15.02;10.55;;;;;;;;;;5118499;27;20054;-65
2021/05/02 05:13:16;;;;;;;14.23;9.75;;;;;;;;;;5134408;27;20047;-65
2021/05/02 05:15:42;;;;;;;14.13;10.27;;;;;;;;;;5135422;27;20039;-65
2021/05/02 05:18:08;;;;;;;16.88;10.02;;;;;;;;;;5134888;27;20144;-65
2021/05/02 05:20:34;;;;;;;14.98;10.68;;;;;;;;;;5149018;27;20069;-65
2021/05/02 05:23:00;;;;;;;15.32;10.13;;;;;;;;;;5154012;27;20057;-65
2021/05/02 05:25:27;;;;;;;13.13;9.57;;;;;;;;;;5136257;27;20512;-66
2021/05/02 05:27:53;;;;;;;17.55;10.68;;;;;;;;;;5135899;27;20049;-65
2021/05/02 05:30:19;;;;;;;15.38;11.00;;;;;;;;;;5123647;27;20064;-65
2021/05/02 05:32:45;;;;;;;17.52;11.23;;;;;;;;;;5128924;27;20047;-65
2021/05/02 05:35:11;;;;;;;16.05;10.15;;;;;;;;;;5134978;27;20134;-65
2021/05/02 05:37:38;;;;;;;13.60;10.55;;;;;;;;;;5134961;27;20048;-65
2021/05/02 05:40:05;;;;;;;16.15;12.07;;;;;;;;;;5136204;27;20051;-65
2021/05/02 05:42:32;;;;;;;15.35;10.90;;;;;;;;;;5151786;27;20058;-65
2021/05/02 05:44:58;;;;;;;14.80;11.20;;;;;;;;;;5135920;27;20630;-64
2021/05/02 05:47:25;;;;;;;15.00;10.57;;;;;;;;;;5135383;27;20058;-65
2021/05/02 05:49:51;;;;;;;18.55;12.38;;;;;;;;;;5142672;27;20042;-65
2021/05/02 05:52:17;;;;;;;18.15;12.73;;;;;;;;;;5156720;27;20054;-65
2021/05/02 05:54:43;;;;;;;13.98;10.82;;;;;;;;;;5138585;27;20494;-65
2021/05/02 05:57:09;;;;;;;18.67;12.10;;;;;;;;;;5135708;27;20039;-65
2021/05/02 05:59:36;;;;;;;18.98;12.73;;;;;;;;;;5135301;27;20058;-65
2021/05/02 06:02:02;;;;;;;17.73;12.93;;;;;;;;;;5135405;27;20051;-65
2021/05/02 06:04:29;;;;;;;15.63;12.10;;;;;;;;;;5135035;27;20051;-66
2021/05/02 06:06:55;;;;;;;17.20;11.73;;;;;;;;;;5133833;27;20483;-65
2021/05/02 06:09:21;;;;;;;16.95;12.95;;;;;;;;;;5114126;27;20491;-65
2021/05/02 06:11:47;;;;;;;16.25;11.45;;;;;;;;;;5134423;27;20061;-65
2021/05/02 06:14:14;;;;;;;15.75;11.82;;;;;;;;;;5141757;27;20445;-65
2021/05/02 06:16:41;;;;;;;18.40;13.13;;;;;;;;;;5134662;27;20051;-65
2021/05/02 06:19:07;;;;;;;19.15;14.20;;;;;;;;;;5134602;27;20050;-64
2021/05/02 06:21:34;;;;;;;20.33;13.20;;;;;;;;;;5135191;27;20147;-65
2021/05/02 06:24:00;;;;;;;19.08;13.35;;;;;;;;;;5134439;27;20519;-65
2021/05/02 06:26:27;;;;;;;20.30;14.65;;;;;;;;;;5134473;27;20103;-65
2021/05/02 06:28:53;;;;;;;18.38;13.75;;;;;;;;;;5134102;27;20499;-65
2021/05/02 06:31:20;;;;;;;18.58;14.10;;;;;;;;;;5131740;27;20051;-65
2021/05/02 06:33:47;;;;;;;21.10;14.82;;;;;;;;;;5127772;27;20050;-65
2021/05/02 06:36:14;;;;;;;21.20;15.07;;;;;;;;;;5133226;27;20138;-65
2021/05/02 06:38:40;;;;;;;23.02;15.43;;;;;;;;;;5135053;27;20047;-65
2021/05/02 06:41:06;;;;;;;22.73;15.50;;;;;;;;;;5137452;27;20490;-65
2021/05/02 06:43:32;;;;;;;22.23;16.77;;;;;;;;;;5134224;27;20047;-65
2021/05/02 06:45:58;;;;;;;19.83;14.68;;;;;;;;;;5135919;27;20051;-65
2021/05/02 06:48:24;;;;;;;21.80;17.05;;;;;;;;;;5144408;27;20045;-65
2021/05/02 06:50:51;;;;;;;24.17;16.05;;;;;;;;;;5155812;27;20089;-65
2021/05/02 06:53:17;;;;;;;18.77;13.50;;;;;;;;;;5149309;27;20115;-65
2021/05/02 06:55:43;;;;;;;21.08;16.63;;;;;;;;;;5134284;27;20062;-65
2021/05/02 06:58:10;;;;;;;20.50;15.48;;;;;;;;;;5134640;27;20046;-65
2021/05/02 07:00:37;;;;;;;19.13;14.82;;;;;;;;;;5134765;27;20406;-65
2021/05/02 07:03:03;;;;;;;21.40;15.77;;;;;;;;;;5133936;27;20043;-65
2021/05/02 07:05:29;;;;;;;19.95;15.32;;;;;;;;;;5132880;27;20046;-65
2021/05/02 07:07:56;;;;;;;20.08;15.02;;;;;;;;;;5133375;27;20095;-65
2021/05/02 07:10:22;;;;;;;18.33;14.65;;;;;;;;;;5132933;27;20050;-65
2021/05/02 07:12:48;;;;;;;20.98;16.25;;;;;;;;;;5152392;27;20487;-66
2021/05/02 07:15:15;;;;;;;17.38;14.80;;;;;;;;;;5133159;27;20058;-66
2021/05/02 07:17:41;;;;;;;18.45;15.27;;;;;;;;;;5133099;27;20066;-65
2021/05/02 07:20:10;;;;;;;20.30;15.95;;;;;;;;;;5133847;27;20499;-66
2021/05/02 07:22:36;;;;;;;20.17;15.90;;;;;;;;;;5133253;27;20068;-66
2021/05/02 07:25:05;;;;;;;23.25;17.92;;;;;;;;;;5132465;27;20043;-66
2021/05/02 07:27:31;;;;;;;23.45;18.35;;;;;;;;;;5133606;27;20051;-67
2021/05/02 07:29:57;;;;;;;19.55;16.45;;;;;;;;;;5132845;27;20079;-65
2021/05/02 07:32:23;;;;;;;22.95;17.05;;;;;;;;;;5122301;28;20055;-66
2021/05/02 07:34:49;;;;;;;21.08;16.55;;;;;;;;;;5133164;27;20114;-66
2021/05/02 07:37:15;;;;;;;21.92;17.55;;;;;;;;;;5115921;28;20051;-67
2021/05/02 07:39:41;;;;;;;24.85;17.52;;;;;;;;;;5113300;28;20047;-66
2021/05/02 07:42:08;;;;;;;24.73;20.15;;;;;;;;;;5141330;27;20070;-66
2021/05/02 07:44:34;;;;;;;22.95;18.50;;;;;;;;;;5131248;27;20050;-66
2021/05/02 07:47:00;;;;;;;22.48;18.50;;;;;;;;;;5142277;27;20040;-66
2021/05/02 07:49:26;;;;;;;22.08;17.48;;;;;;;;;;5136488;27;20123;-66
2021/05/02 07:51:52;;;;;;;22.17;17.70;;;;;;;;;;5154372;27;20078;-66
2021/05/02 07:54:18;;;;;;;21.02;17.70;;;;;;;;;;5135428;27;20097;-66
2021/05/02 07:56:44;;;;;;;21.50;17.23;;;;;;;;;;5133230;28;20093;-66
2021/05/02 07:59:11;;;;;;;23.17;17.52;;;;;;;;;;5122730;28;20121;-66
2021/05/02 08:01:37;;;;;;;19.80;16.75;;;;;;;;;;5154845;27;20047;-66
2021/05/02 08:04:04;;;;;;;19.52;16.70;;;;;;;;;;5150928;27;20092;-66
2021/05/02 08:06:30;;;;;;;19.33;14.95;;;;;;;;;;5158203;27;20089;-66
2021/05/02 08:08:56;;;;;;;18.88;14.65;;;;;;;;;;5158169;27;20047;-66
2021/05/02 08:11:22;;;;;;;17.55;14.35;;;;;;;;;;5142793;27;20082;-66
2021/05/02 08:13:48;;;;;;;16.58;13.45;;;;;;;;;;5136927;27;20132;-66
2021/05/02 08:16:16;;;;;;;17.10;14.32;;;;;;;;;;5132142;27;20050;-66
2021/05/02 08:18:42;;;;;;;20.45;14.88;;;;;;;;;;5116501;28;20058;-66
2021/05/02 08:21:10;;;;;;;16.08;12.90;;;;;;;;;;5116697;28;20056;-66
2021/05/02 08:23:36;;;;;;;16.60;14.23;;;;;;;;;;5123834;27;20050;-66
2021/05/02 08:26:02;;;;;;;16.27;13.80;;;;;;;;;;5137513;27;20047;-66
2021/05/02 08:28:28;;;;;;;14.60;12.73;;;;;;;;;;5135422;27;20078;-66
2021/05/02 08:30:54;;;;;;;14.48;12.43;;;;;;;;;;5132113;27;20051;-66
2021/05/02 08:33:21;;;;;;;14.05;10.95;;;;;;;;;;5132487;27;20043;-66
2021/05/02 08:35:49;;;;;;;14.45;12.00;;;;;;;;;;5128922;27;20051;-67
2021/05/02 08:38:15;;;;;;;14.38;11.95;;;;;;;;;;5137022;27;20050;-66
2021/05/02 08:40:41;;;;;;;14.75;12.07;;;;;;;;;;5141716;27;20042;-66
2021/05/02 08:43:08;;;;;;;16.55;13.88;;;;;;;;;;5154023;27;20402;-65
2021/05/02 08:45:34;;;;;;;16.13;12.88;;;;;;;;;;5136220;27;20077;-65
2021/05/02 08:48:00;;;;;;;16.85;14.15;;;;;;;;;;5131400;27;20066;-66
2021/05/02 08:50:27;;;;;;;14.45;12.50;;;;;;;;;;5136295;27;20426;-66
2021/05/02 08:52:53;;;;;;;14.75;12.80;;;;;;;;;;5140650;27;20047;-65
2021/05/02 08:55:19;;;;;;;15.93;13.35;;;;;;;;;;5135436;27;20054;-65
2021/05/02 08:57:45;;;;;;;15.25;12.88;;;;;;;;;;5136551;27;20092;-66
2021/05/02 09:00:12;;;;;;;16.45;14.63;;;;;;;;;;5136447;27;20435;-66
2021/05/02 09:02:38;;;;;;;17.40;13.60;;;;;;;;;;5134986;27;20061;-65
2021/05/02 09:05:06;;;;;;;18.15;14.48;;;;;;;;;;5134064;27;20468;-65
2021/05/02 09:07:41;;;;;;;17.55;14.10;;;;;;;;;;5135101;27;20122;-66
2021/05/02 09:10:08;;;;;;;15.13;13.43;;;;;;;;;;5134052;27;20043;-66
2021/05/02 09:12:34;;;;;;;15.27;13.68;;;;;;;;;;5137460;27;20055;-66
2021/05/02 09:15:04;;;;;;;15.40;13.20;;;;;;;;;;5133535;27;20138;-66
2021/05/02 09:17:32;;;;;;;17.10;13.90;;;;;;;;;;5135034;27;20130;-66
2021/05/02 09:19:58;;;;;;;16.63;14.18;;;;;;;;;;5135958;27;20066;-66
2021/05/02 09:22:24;;;;;;;17.38;14.18;;;;;;;;;;5136271;27;20115;-66
2021/05/02 09:25:06;;;;;;;20.33;15.45;;;;;;;;;;5135301;27;20055;-66
2021/05/02 09:27:32;;;;;;;20.05;16.10;;;;;;;;;;5136103;27;20043;-66
2021/05/02 09:30:13;;;;;;;18.83;14.82;;;;;;;;;;5136200;27;20050;-66
2021/05/02 09:32:44;;;;;;;21.42;17.50;;;;;;;;;;5132349;27;20061;-66
2021/05/02 09:35:23;;;;;;;20.13;17.50;;;;;;;;;;5134937;27;20391;-66
2021/05/02 09:37:49;;;;;;;20.88;16.15;;;;;;;;;;5136199;27;20051;-66
2021/05/02 09:40:18;;;;;;;21.65;17.05;;;;;;;;;;5136193;27;20476;-66
2021/05/02 09:42:48;;;;;;;19.48;16.67;;;;;;;;;;5134878;27;20050;-66
2021/05/02 09:45:14;;;;;;;18.65;16.55;;;;;;;;;;5135261;27;20058;-66
2021/05/02 09:47:42;;;;;;;21.08;16.67;;;;;;;;;;5135485;27;20045;-66
2021/05/02 09:50:10;;;;;;;19.17;17.02;;;;;;;;;;5139240;27;20058;-66
2021/05/02 09:52:40;;;;;;;20.70;18.38;;;;;;;;;;5131725;27;20403;-66
2021/05/02 09:55:29;;;;;;;20.83;17.33;;;;;;;;;;5131451;27;20088;-68
2021/05/02 09:57:56;;;;;;;22.20;19.73;;;;;;;;;;5131196;27;20138;-67
2021/05/02 10:00:27;;;;;;;21.98;19.25;;;;;;;;;;5135499;27;20047;-68
2021/05/02 10:02:53;;;;;;;20.45;18.15;;;;;;;;;;5124280;27;20058;-67
2021/05/02 10:05:19;;;;;;;21.92;18.30;;;;;;;;;;5132031;27;20141;-67
2021/05/02 10:07:46;;;;;;;23.67;20.65;;;;;;;;;;5130015;27;20039;-67
2021/05/02 10:10:12;;;;;;;24.88;20.98;;;;;;;;;;5153296;27;20051;-69
2021/05/02 10:12:40;;;;;;;24.75;21.33;;;;;;;;;;5125857;27;20065;-66
2021/05/02 10:15:07;;;;;;;28.67;24.13;;;;;;;;;;5134415;27;20476;-67
2021/05/02 10:17:33;;;;;;;26.05;22.35;;;;;;;;;;5136309;27;20046;-67
2021/05/02 10:20:00;;;;;;;29.17;24.40;;;;;;;;;;5134925;27;20051;-66
2021/05/02 10:22:26;;;;;;;28.98;24.67;;;;;;;;;;5136598;27;20044;-67
2021/05/02 10:24:52;;;;;;;27.00;23.27;;;;;;;;;;5129733;27;20044;-66
2021/05/02 10:27:19;;;;;;;27.98;23.42;;;;;;;;;;5133842;27;20043;-66
2021/05/02 10:29:49;;;;;;;27.35;23.73;;;;;;;;;;5115339;27;20049;-66
2021/05/02 10:32:19;;;;;;;26.42;23.15;;;;;;;;;;5140667;27;20137;-66
2021/05/02 10:34:47;;;;;;;27.77;23.45;;;;;;;;;;5123480;27;20464;-66
2021/05/02 10:37:37;;;;;;;27.35;22.42;;;;;;;;;;5120780;27;20111;-66
2021/05/02 10:40:20;;;;;;;25.83;22.75;;;;;;;;;;5133013;27;20403;-66
2021/05/02 10:42:50;;;;;;;26.90;23.67;;;;;;;;;;5150187;27;20458;-66
2021/05/02 10:45:43;;;;;;;29.45;25.35;;;;;;;;;;5128750;27;20085;-66
2021/05/02 10:48:13;;;;;;;28.67;24.67;;;;;;;;;;5150230;27;20418;-66
2021/05/02 10:50:41;;;;;;;28.58;23.38;;;;;;;;;;5138424;27;20051;-66
2021/05/02 10:53:09;;;;;;;28.92;25.83;;;;;;;;;;5135272;27;20059;-66
2021/05/02 10:55:50;;;;;;;26.77;23.88;;;;;;;;;;5152580;27;20051;-66
2021/05/02 10:58:21;;;;;;;29.05;25.00;;;;;;;;;;5155223;27;20387;-66
2021/05/02 11:00:50;;;;;;;30.85;25.02;;;;;;;;;;5155688;27;20065;-66
2021/05/02 11:03:50;;;;;;;32.95;25.70;;;;;;;;;;5149131;27;20074;-66
2021/05/02 11:06:48;;;;;;;31.48;25.83;;;;;;;;;;5127546;27;20055;-66
2021/05/02 11:09:16;;;;;;;31.48;27.35;;;;;;;;;;5133497;27;20529;-67
2021/05/02 11:11:45;;;;;;;29.55;25.58;;;;;;;;;;5135449;27;20047;-65
2021/05/02 11:14:32;;;;;;;30.27;25.58;;;;;;;;;;5130486;27;20111;-65
2021/05/02 11:17:24;;;;;;;30.95;25.17;;;;;;;;;;5133830;27;20130;-66
2021/05/02 11:19:53;;;;;;;28.75;24.75;;;;;;;;;;5134519;27;20157;-66
2021/05/02 11:22:20;;;;;;;27.27;23.38;;;;;;;;;;5133741;27;20116;-67
2021/05/02 11:24:57;;;;;;;31.67;27.35;;;;;;;;;;5144271;27;20047;-65
2021/05/02 11:28:05;;;;;;;26.55;23.77;;;;;;;;;;5138321;27;20430;-65
2021/05/02 11:30:32;;;;;;;28.10;25.10;;;;;;;;;;5133042;27;20074;-66
2021/05/02 11:33:00;;;;;;;29.95;25.63;;;;;;;;;;5133342;27;20055;-65
2021/05/02 11:35:53;;;;;;;26.60;23.33;;;;;;;;;;5123676;27;20129;-65
2021/05/02 11:38:41;;;;;;;27.48;24.55;;;;;;;;;;5124584;27;20047;-65
2021/05/02 11:41:09;;;;;;;28.75;23.27;;;;;;;;;;5117650;28;20510;-65
2021/05/02 11:43:37;;;;;;;25.67;23.00;;;;;;;;;;5132290;28;20047;-66
2021/05/02 11:46:06;;;;;;;24.58;21.17;;;;;;;;;;5139902;27;20069;-66
2021/05/02 11:48:36;;;;;;;25.00;22.48;;;;;;;;;;5137052;27;20067;-69
2021/05/02 11:51:04;;;;;;;23.23;20.83;;;;;;;;;;5141071;27;20095;-66
2021/05/02 11:53:42;;;;;;;23.58;21.25;;;;;;;;;;5137966;27;21569;-67
2021/05/02 11:56:13;;;;;;;23.08;20.58;;;;;;;;;;5131465;27;20051;-67
2021/05/02 11:58:39;;;;;;;26.02;22.13;;;;;;;;;;5132512;28;20515;-67
2021/05/02 12:01:09;;;;;;;25.08;22.23;;;;;;;;;;5132589;28;20392;-67
2021/05/02 12:03:37;;;;;;;22.88;20.45;;;;;;;;;;5132083;27;20043;-68
2021/05/02 12:06:04;;;;;;;24.55;21.67;;;;;;;;;;5132786;28;20043;-69
2021/05/02 12:08:31;;;;;;;24.42;20.50;;;;;;;;;;5114580;28;20065;-68
2021/05/02 12:10:58;;;;;;;23.23;20.77;;;;;;;;;;5130197;27;20043;-69
2021/05/02 12:13:31;;;;;;;20.73;18.55;;;;;;;;;;5128040;28;20051;-67
2021/05/02 12:16:06;;;;;;;21.25;19.08;;;;;;;;;;5126746;28;20103;-69
2021/05/02 12:18:44;;;;;;;23.95;21.30;;;;;;;;;;5132098;27;20049;-67
2021/05/02 12:21:14;;;;;;;21.52;19.30;;;;;;;;;;5133138;28;20096;-67
2021/05/02 12:23:40;;;;;;;20.33;17.85;;;;;;;;;;5133090;28;20059;-68
2021/05/02 12:26:07;;;;;;;19.65;17.42;;;;;;;;;;5132533;28;20047;-67
2021/05/02 12:28:33;;;;;;;22.05;19.77;;;;;;;;;;5132046;28;20044;-67
2021/05/02 12:30:59;;;;;;;21.67;19.45;;;;;;;;;;5133142;28;20086;-67
2021/05/02 12:33:25;;;;;;;18.75;16.77;;;;;;;;;;5132226;28;20103;-67
2021/05/02 12:35:52;;;;;;;19.55;17.55;;;;;;;;;;5127586;28;20055;-67
2021/05/02 12:38:25;;;;;;;19.45;17.45;;;;;;;;;;5116213;28;20058;-67
2021/05/02 12:40:52;;;;;;;21.73;19.42;;;;;;;;;;5140920;27;20054;-67
2021/05/02 12:43:25;;;;;;;19.83;17.83;;;;;;;;;;5148445;27;20057;-67
2021/05/02 12:45:52;;;;;;;19.33;17.30;;;;;;;;;;5143183;27;20047;-67
2021/05/02 12:48:31;;;;;;;20.38;18.23;;;;;;;;;;5136806;27;20047;-67
2021/05/02 12:51:00;;;;;;;17.77;15.98;;;;;;;;;;5148817;27;20410;-67
2021/05/02 12:53:37;;;;;;;18.30;16.45;;;;;;;;;;5135445;27;20141;-67
2021/05/02 12:56:03;;;;;;;18.73;16.85;;;;;;;;;;5136208;27;20054;-67
2021/05/02 12:58:34;;;;;;;20.40;17.63;;;;;;;;;;5136599;27;20501;-67
2021/05/02 13:01:04;;;;;;;17.30;15.60;;;;;;;;;;5138607;27;20058;-67
2021/05/02 13:03:34;;;;;;;18.42;16.52;;;;;;;;;;5152325;27;20047;-68
2021/05/02 13:06:04;;;;;;;17.60;15.80;;;;;;;;;;5156652;27;20059;-68
2021/05/02 13:08:29;;;;;;;18.17;16.38;;;;;;;;;;5118409;27;20385;-68
2021/05/02 13:10:55;;;;;;;16.75;14.95;;;;;;;;;;5135962;27;20054;-68
2021/05/02 13:13:21;;;;;;;17.17;15.57;;;;;;;;;;5136199;27;20373;-68
2021/05/02 13:15:49;;;;;;;16.20;14.68;;;;;;;;;;5136727;27;20480;-68
2021/05/02 13:18:16;;;;;;;16.95;14.10;;;;;;;;;;5157013;27;20058;-68
2021/05/02 13:20:47;;;;;;;17.35;15.55;;;;;;;;;;5157033;27;20064;-67
2021/05/02 13:23:27;;;;;;;16.63;15.07;;;;;;;;;;5156656;27;20076;-68
2021/05/02 13:26:14;;;;;;;17.75;15.85;;;;;;;;;;5150723;27;20051;-68
2021/05/02 13:29:14;;;;;;;17.05;15.25;;;;;;;;;;5135751;27;20545;-67
2021/05/02 13:31:56;;;;;;;18.40;16.15;;;;;;;;;;5135929;27;20078;-68
2021/05/02 13:34:23;;;;;;;18.10;16.30;;;;;;;;;;5135962;27;20142;-68
2021/05/02 13:36:50;;;;;;;18.27;16.35;;;;;;;;;;5129990;27;20396;-67
2021/05/02 13:39:21;;;;;;;17.42;15.00;;;;;;;;;;5118490;27;20482;-67
2021/05/02 13:41:47;;;;;;;17.73;16.00;;;;;;;;;;5139918;27;20435;-68
2021/05/02 13:44:14;;;;;;;17.88;15.65;;;;;;;;;;5141751;27;20043;-68
2021/05/02 13:46:41;;;;;;;17.73;16.02;;;;;;;;;;5156812;27;20054;-68
2021/05/02 13:49:07;;;;;;;17.15;15.45;;;;;;;;;;5156720;27;20085;-67
2021/05/02 13:51:33;;;;;;;19.85;17.85;;;;;;;;;;5156390;27;20042;-67
2021/05/02 13:54:00;;;;;;;18.58;16.67;;;;;;;;;;5156110;27;20058;-67
2021/05/02 13:56:27;;;;;;;16.27;14.68;;;;;;;;;;5155672;27;20149;-67
2021/05/02 13:58:53;;;;;;;17.48;15.77;;;;;;;;;;5155541;27;20389;-67
2021/05/02 14:01:20;;;;;;;16.63;14.82;;;;;;;;;;5155059;27;20058;-67
2021/05/02 14:03:46;;;;;;;16.25;13.90;;;;;;;;;;5136496;27;20047;-67
2021/05/02 14:06:12;;;;;;;16.50;14.80;;;;;;;;;;5135129;27;20540;-67
2021/05/02 14:08:38;;;;;;;14.73;13.23;;;;;;;;;;5135216;27;20051;-67
2021/05/02 14:11:04;;;;;;;15.23;13.73;;;;;;;;;;5135560;27;20051;-67
2021/05/02 14:13:32;;;;;;;16.08;13.38;;;;;;;;;;5134568;27;20043;-67
2021/05/02 14:15:58;;;;;;;15.25;13.75;;;;;;;;;;5135549;27;20072;-67
2021/05/02 14:18:24;;;;;;;15.50;13.90;;;;;;;;;;5134775;27;20039;-67
2021/05/02 14:20:50;;;;;;;15.02;13.57;;;;;;;;;;5134832;27;20388;-67
2021/05/02 14:23:16;;;;;;;16.33;14.70;;;;;;;;;;5134710;27;20054;-67
2021/05/02 14:25:46;;;;;;;16.08;14.45;;;;;;;;;;5134446;27;20126;-67
2021/05/02 14:28:12;;;;;;;16.60;14.25;;;;;;;;;;5134192;27;20051;-67
2021/05/02 14:30:39;;;;;;;15.60;14.10;;;;;;;;;;5134815;27;20087;-67